PWSweather.com
Personal Weather Stations
Station Observations
CW4114
Near Downtown, Rogers City, MI 49779

Near DowntownRogers City, MI 49779

Lat: 45.417443, Lon: -83.810642

Elevation: 605

Station Type: Davis Vantage Pro2 w/Solar

Latest ConditionsUpdated 4:55:02 AM EST Tuesday, Dec 10, 2019
Currently Today's Max Today's Min Today's Average
Temperature 19.9°F-6.7°C 25.5°F-3.6°C 19.9°F-6.7°C 22.5°F-5.3°C
Dew Point 17.2°F-8.2°C 24.3°F-4.3°C 17.2°F-8.2°C 20.2°F-6.6°C
Winds 7.4 mph W11.9 kmh W 10.7 mph -17.2 kmh - - 6.4 mph 10.3 kmh
Wind Gusts 14.8 mph23.8 kmh 23.3 mph37.5 kmh - -
Humidity 89% 95% 89% 91%
Pressure 29.71 in1006.1 mb 29.71 in1006.1 mb 29.47 in998.0 mb -
Hour Temp Dew Point Humidity Winds Wind Gusts Pressure Precip Precip Rate Daily Precip Total
04:55 AM 19.9°F-6.7°C 17.2°F-8.2°C 89% 7.4 mph W11.9 kmh W 14.8 mph23.8 kmh 29.71 in1006.1 mb 0.00 in0.0 mm 0.00 in0.0 mm 0.00 in0.0 mm
04:50 AM 19.9°F-6.7°C 17.2°F-8.2°C 89% 6.7 mph 10.8 kmh 18.1 mph29.1 kmh 29.70 in1005.8 mb 0.00 in0.0 mm 0.00 in0.0 mm 0.00 in0.0 mm
04:45 AM 20.1°F-6.6°C 17.6°F-8.0°C 90% 7.4 mph W11.9 kmh W 15.9 mph25.6 kmh 29.70 in1005.8 mb 0.00 in0.0 mm 0.00 in0.0 mm 0.00 in0.0 mm
04:40 AM 20.3°F-6.5°C 17.8°F-7.9°C 90% 7.2 mph WNW11.6 kmh WNW 17.0 mph27.4 kmh 29.70 in1005.8 mb 0.00 in0.0 mm 0.00 in0.0 mm 0.00 in0.0 mm
04:35 AM 20.5°F-6.4°C 18.0°F-7.8°C 90% 5.8 mph W9.3 kmh W 17.0 mph27.4 kmh 29.69 in1005.4 mb 0.00 in0.0 mm 0.00 in0.0 mm 0.00 in0.0 mm
04:30 AM 20.7°F-6.3°C 18.1°F-7.7°C 90% 7.8 mph W12.6 kmh W 14.8 mph23.8 kmh 29.69 in1005.4 mb 0.00 in0.0 mm 0.00 in0.0 mm 0.00 in0.0 mm
04:25 AM 20.7°F-6.3°C 18.1°F-7.7°C 90% 5.1 mph NW8.2 kmh NW 15.9 mph25.6 kmh 29.68 in1005.1 mb 0.00 in0.0 mm 0.00 in0.0 mm 0.00 in0.0 mm
04:20 AM 20.8°F-6.2°C 18.3°F-7.6°C 90% 4.7 mph NNW7.6 kmh NNW 15.9 mph25.6 kmh 29.68 in1005.1 mb 0.00 in0.0 mm 0.00 in0.0 mm 0.00 in0.0 mm
04:15 AM 20.8°F-6.2°C 18.1°F-7.7°C 89% 5.8 mph N9.3 kmh N 15.9 mph25.6 kmh 29.67 in1004.7 mb 0.00 in0.0 mm 0.00 in0.0 mm 0.00 in0.0 mm
04:10 AM 20.8°F-6.2°C 18.1°F-7.7°C 89% 5.8 mph N9.3 kmh N 14.8 mph23.8 kmh 29.67 in1004.7 mb 0.00 in0.0 mm 0.00 in0.0 mm 0.00 in0.0 mm
04:05 AM 20.8°F-6.2°C 18.1°F-7.7°C 89% 8.7 mph NW14.0 kmh NW 14.8 mph23.8 kmh 29.66 in1004.4 mb 0.00 in0.0 mm 0.00 in0.0 mm 0.00 in0.0 mm
03:59 AM 20.8°F-6.2°C 18.1°F-7.7°C 89% 4.9 mph NW7.9 kmh NW 14.8 mph23.8 kmh 29.66 in1004.4 mb 0.00 in0.0 mm 0.00 in0.0 mm 0.00 in0.0 mm
03:54 AM 21.0°F-6.1°C 18.3°F-7.6°C 89% 6.5 mph NW10.5 kmh NW 13.9 mph22.4 kmh 29.65 in1004.1 mb 0.00 in0.0 mm 0.00 in0.0 mm 0.00 in0.0 mm
03:49 AM 21.0°F-6.1°C 18.3°F-7.6°C 89% 7.2 mph NW11.6 kmh NW 19.0 mph30.6 kmh 29.65 in1004.1 mb 0.00 in0.0 mm 0.00 in0.0 mm 0.00 in0.0 mm
03:44 AM 21.0°F-6.1°C 18.3°F-7.6°C 89% 10.7 mph WNW17.2 kmh WNW 21.3 mph34.3 kmh 29.65 in1004.1 mb 0.00 in0.0 mm 0.00 in0.0 mm 0.00 in0.0 mm
03:39 AM 21.4°F-5.9°C 18.7°F-7.4°C 89% 8.9 mph NNW14.3 kmh NNW 17.0 mph27.4 kmh 29.64 in1003.7 mb 0.00 in0.0 mm 0.00 in0.0 mm 0.00 in0.0 mm
03:34 AM 21.6°F-5.8°C 18.9°F-7.3°C 89% 8.1 mph NW13.0 kmh NW 23.3 mph37.5 kmh 29.64 in1003.7 mb 0.00 in0.0 mm 0.00 in0.0 mm 0.00 in0.0 mm
03:29 AM 21.7°F-5.7°C 19.0°F-7.2°C 89% 4.9 mph NW7.9 kmh NW 17.0 mph27.4 kmh 29.65 in1004.1 mb 0.00 in0.0 mm 0.00 in0.0 mm 0.00 in0.0 mm
03:24 AM 21.9°F-5.6°C 19.2°F-7.1°C 89% 6.7 mph NNW10.8 kmh NNW 17.0 mph27.4 kmh 29.65 in1004.1 mb 0.00 in0.0 mm 0.00 in0.0 mm 0.00 in0.0 mm
03:19 AM 21.9°F-5.6°C 19.2°F-7.1°C 89% 7.8 mph N12.6 kmh N 17.0 mph27.4 kmh 29.65 in1004.1 mb 0.00 in0.0 mm 0.00 in0.0 mm 0.00 in0.0 mm
03:14 AM 21.9°F-5.6°C 19.2°F-7.1°C 89% 7.2 mph W11.6 kmh W 14.8 mph23.8 kmh 29.65 in1004.1 mb 0.00 in0.0 mm 0.00 in0.0 mm 0.00 in0.0 mm
03:09 AM 22.1°F-5.5°C 19.4°F-7.0°C 89% 7.8 mph NW12.6 kmh NW 14.8 mph23.8 kmh 29.65 in1004.1 mb 0.00 in0.0 mm 0.00 in0.0 mm 0.00 in0.0 mm
03:04 AM 22.3°F-5.4°C 19.6°F-6.9°C 89% 6.5 mph NW10.5 kmh NW 14.8 mph23.8 kmh 29.65 in1004.1 mb 0.00 in0.0 mm 0.00 in0.0 mm 0.00 in0.0 mm
02:59 AM 22.3°F-5.4°C 19.6°F-6.9°C 89% 5.4 mph WNW8.7 kmh WNW 12.8 mph20.6 kmh 29.65 in1004.1 mb 0.00 in0.0 mm 0.00 in0.0 mm 0.00 in0.0 mm
02:54 AM 22.3°F-5.4°C 19.6°F-6.9°C 89% 6.3 mph W10.1 kmh W 15.9 mph25.6 kmh 29.64 in1003.7 mb 0.00 in0.0 mm 0.00 in0.0 mm 0.00 in0.0 mm
02:49 AM 22.3°F-5.4°C 19.6°F-6.9°C 89% 5.1 mph W8.2 kmh W 13.9 mph22.4 kmh 29.63 in1003.4 mb 0.00 in0.0 mm 0.00 in0.0 mm 0.00 in0.0 mm
02:44 AM 22.5°F-5.3°C 19.8°F-6.8°C 89% 6.0 mph NW9.7 kmh NW 17.0 mph27.4 kmh 29.63 in1003.4 mb 0.00 in0.0 mm 0.00 in0.0 mm 0.00 in0.0 mm
02:39 AM 22.5°F-5.3°C 19.8°F-6.8°C 89% 4.9 mph NW7.9 kmh NW 11.6 mph18.7 kmh 29.63 in1003.4 mb 0.00 in0.0 mm 0.00 in0.0 mm 0.00 in0.0 mm
02:34 AM 22.5°F-5.3°C 19.9°F-6.7°C 90% 3.8 mph NE6.1 kmh NE 12.8 mph20.6 kmh 29.62 in1003.0 mb 0.00 in0.0 mm 0.00 in0.0 mm 0.00 in0.0 mm
02:29 AM 22.5°F-5.3°C 19.9°F-6.7°C 90% 4.9 mph N7.9 kmh N 12.8 mph20.6 kmh 29.62 in1003.0 mb 0.00 in0.0 mm 0.00 in0.0 mm 0.00 in0.0 mm
02:24 AM 22.5°F-5.3°C 19.9°F-6.7°C 90% 6.3 mph N10.1 kmh N 11.6 mph18.7 kmh 29.61 in1002.7 mb 0.00 in0.0 mm 0.00 in0.0 mm 0.00 in0.0 mm
02:19 AM 22.5°F-5.3°C 19.9°F-6.7°C 90% 8.5 mph NW13.7 kmh NW 17.0 mph27.4 kmh 29.61 in1002.7 mb 0.00 in0.0 mm 0.00 in0.0 mm 0.00 in0.0 mm
02:14 AM 22.5°F-5.3°C 19.9°F-6.7°C 90% 6.9 mph NNW11.1 kmh NNW 15.9 mph25.6 kmh 29.60 in1002.4 mb 0.00 in0.0 mm 0.00 in0.0 mm 0.00 in0.0 mm
02:09 AM 22.6°F-5.2°C 20.1°F-6.6°C 90% 4.7 mph NNW7.6 kmh NNW 13.9 mph22.4 kmh 29.60 in1002.4 mb 0.00 in0.0 mm 0.00 in0.0 mm 0.00 in0.0 mm
02:04 AM 22.6°F-5.2°C 20.1°F-6.6°C 90% 4.3 mph N6.9 kmh N 15.9 mph25.6 kmh 29.60 in1002.4 mb 0.00 in0.0 mm 0.00 in0.0 mm 0.00 in0.0 mm
01:59 AM 22.6°F-5.2°C 20.5°F-6.4°C 91% 5.4 mph WNW8.7 kmh WNW 18.1 mph29.1 kmh 29.59 in1002.0 mb 0.00 in0.0 mm 0.00 in0.0 mm 0.00 in0.0 mm
01:54 AM 22.8°F-5.1°C 20.7°F-6.3°C 91% 6.3 mph WNW10.1 kmh WNW 13.9 mph22.4 kmh 29.59 in1002.0 mb 0.00 in0.0 mm 0.00 in0.0 mm 0.00 in0.0 mm
01:49 AM 22.8°F-5.1°C 20.7°F-6.3°C 91% 8.1 mph NW13.0 kmh NW 17.0 mph27.4 kmh 29.58 in1001.7 mb 0.00 in0.0 mm 0.00 in0.0 mm 0.00 in0.0 mm
01:44 AM 22.8°F-5.1°C 20.7°F-6.3°C 91% 6.7 mph NW10.8 kmh NW 13.9 mph22.4 kmh 29.58 in1001.7 mb 0.00 in0.0 mm 0.00 in0.0 mm 0.00 in0.0 mm
01:39 AM 23.0°F-5.0°C 20.8°F-6.2°C 91% 5.1 mph WNW8.2 kmh WNW 14.8 mph23.8 kmh 29.57 in1001.4 mb 0.00 in0.0 mm 0.00 in0.0 mm 0.00 in0.0 mm
01:34 AM 23.2°F-4.9°C 21.0°F-6.1°C 91% 5.6 mph NW9.0 kmh NW 14.8 mph23.8 kmh 29.57 in1001.4 mb 0.00 in0.0 mm 0.00 in0.0 mm 0.00 in0.0 mm
01:29 AM 23.2°F-4.9°C 21.2°F-6.0°C 92% 5.1 mph W8.2 kmh W 17.0 mph27.4 kmh 29.56 in1001.0 mb 0.00 in0.0 mm 0.00 in0.0 mm 0.00 in0.0 mm
01:24 AM 23.4°F-4.8°C 21.4°F-5.9°C 92% 7.4 mph NW11.9 kmh NW 12.8 mph20.6 kmh 29.55 in1000.7 mb 0.00 in0.0 mm 0.00 in0.0 mm 0.00 in0.0 mm
01:19 AM 23.4°F-4.8°C 21.4°F-5.9°C 92% 6.7 mph NW10.8 kmh NW 13.9 mph22.4 kmh 29.54 in1000.3 mb 0.00 in0.0 mm 0.00 in0.0 mm 0.00 in0.0 mm
01:14 AM 23.5°F-4.7°C 21.6°F-5.8°C 92% 6.9 mph N11.1 kmh N 13.9 mph22.4 kmh 29.54 in1000.3 mb 0.00 in0.0 mm 0.00 in0.0 mm 0.00 in0.0 mm
01:09 AM 23.5°F-4.7°C 21.6°F-5.8°C 92% 7.2 mph NW11.6 kmh NW 20.1 mph32.3 kmh 29.54 in1000.3 mb 0.00 in0.0 mm 0.00 in0.0 mm 0.00 in0.0 mm
01:04 AM 23.7°F-4.6°C 21.7°F-5.7°C 92% 6.3 mph NW10.1 kmh NW 12.8 mph20.6 kmh 29.53 in1000.0 mb 0.00 in0.0 mm 0.00 in0.0 mm 0.00 in0.0 mm
12:59 AM 24.1°F-4.4°C 22.1°F-5.5°C 92% 3.6 mph NW5.8 kmh NW 12.8 mph20.6 kmh 29.53 in1000.0 mb 0.00 in0.0 mm 0.00 in0.0 mm 0.00 in0.0 mm
12:54 AM 24.1°F-4.4°C 22.1°F-5.5°C 92% 5.8 mph NW9.3 kmh NW 17.0 mph27.4 kmh 29.52 in999.7 mb 0.00 in0.0 mm 0.00 in0.0 mm 0.00 in0.0 mm
12:49 AM 24.3°F-4.3°C 22.5°F-5.3°C 93% 2.5 mph WNW4.0 kmh WNW 11.6 mph18.7 kmh 29.52 in999.7 mb 0.00 in0.0 mm 0.00 in0.0 mm 0.00 in0.0 mm
12:44 AM 24.4°F-4.2°C 22.6°F-5.2°C 93% 7.8 mph NW12.6 kmh NW 21.3 mph34.3 kmh 29.51 in999.3 mb 0.00 in0.0 mm 0.00 in0.0 mm 0.00 in0.0 mm
12:39 AM 24.6°F-4.1°C 23.2°F-4.9°C 94% 6.5 mph WSW10.5 kmh WSW 14.8 mph23.8 kmh 29.51 in999.3 mb 0.00 in0.0 mm 0.00 in0.0 mm 0.00 in0.0 mm
12:34 AM 25.0°F-3.9°C 23.5°F-4.7°C 94% 6.0 mph WNW9.7 kmh WNW 13.9 mph22.4 kmh 29.51 in999.3 mb 0.00 in0.0 mm 0.00 in0.0 mm 0.00 in0.0 mm
12:29 AM 25.2°F-3.8°C 23.7°F-4.6°C 94% 8.1 mph NW13.0 kmh NW 15.9 mph25.6 kmh 29.50 in999.0 mb 0.00 in0.0 mm 0.00 in0.0 mm 0.00 in0.0 mm
12:24 AM 25.2°F-3.8°C 23.9°F-4.5°C 95% 8.1 mph WNW13.0 kmh WNW 15.9 mph25.6 kmh 29.49 in998.6 mb 0.00 in0.0 mm 0.00 in0.0 mm 0.00 in0.0 mm
12:19 AM 25.2°F-3.8°C 23.9°F-4.5°C 95% 6.7 mph NW10.8 kmh NW 15.9 mph25.6 kmh 29.49 in998.6 mb 0.00 in0.0 mm 0.00 in0.0 mm 0.00 in0.0 mm
12:14 AM 25.3°F-3.7°C 24.1°F-4.4°C 95% 4.7 mph N7.6 kmh N 13.9 mph22.4 kmh 29.48 in998.3 mb 0.00 in0.0 mm 0.00 in0.0 mm 0.00 in0.0 mm
12:09 AM 25.3°F-3.7°C 24.1°F-4.4°C 95% 6.5 mph WNW10.5 kmh WNW 17.0 mph27.4 kmh 29.48 in998.3 mb 0.00 in0.0 mm 0.00 in0.0 mm 0.00 in0.0 mm
12:04 AM 25.5°F-3.6°C 24.3°F-4.3°C 95% 6.7 mph WNW10.8 kmh WNW 13.9 mph22.4 kmh 29.47 in998.0 mb 0.00 in0.0 mm 0.00 in0.0 mm 0.00 in0.0 mm